Ventspils, Latvia
Current Conditions -  °F | °C
As of 9:20 AM on Sunday 21 Dec 2014 (Local Time) from EVVA Reporting Station
Broken Clouds Broken Clouds  
Wind Chill: 31°   Ceiling: 2800
Heat Index: 39°   Visibility: 6mi
Dew Point: 32°   Wind: 14mph
Humidity: 75%   Direction: 300°WNW
Pressure: 29.56"   Gusts: NA
Location:  57.4°N, 21.56°E
Report Text: EVVA 210620Z AUTO 30012KT 9999 BKN028 BKN033 04/M00 Q1001
Loading
Personal Weather Stations






























Interactive Weather Map New forecast layout! Learn more

10-Day Weather Forecast

Advertisements
Track Severe Weather on mobile